Time;durP1;ratioP1;P1;durP2;ratioP2;P2;SDS_P1;SDS_P2;PMS_P1;PMS_P2;Temp;Humidity;BMP_temperature;BMP_pressure;BME280_temperature;BME280_humidity;BME280_pressure;Samples;Min_cycle;Max_cycle;Signal;HPM_P1;HPM_P2
2022/07/22 00:00:04;;;;;;;26.20;11.60;;;16.80;99.90;;;;;;5040029;28;20476;-67
2022/07/22 00:02:31;;;;;;;28.30;12.23;;;16.80;99.90;;;;;;5039014;28;21107;-67
2022/07/22 00:04:58;;;;;;;18.03;11.40;;;16.70;99.90;;;;;;5043535;28;20496;-65
2022/07/22 00:07:25;;;;;;;15.53;11.10;;;16.70;99.90;;;;;;5041597;28;20521;-66
2022/07/22 00:09:52;;;;;;;23.70;11.67;;;16.70;99.90;;;;;;5042170;28;20464;-66
2022/07/22 00:12:21;;;;;;;21.23;11.03;;;16.70;99.90;;;;;;5037928;28;20460;-66
2022/07/22 00:14:48;;;;;;;23.33;12.70;;;16.70;99.90;;;;;;5040552;28;20514;-65
2022/07/22 00:17:15;;;;;;;20.53;10.50;;;16.70;99.90;;;;;;5040431;28;20469;-66
2022/07/22 00:19:42;;;;;;;18.77;10.93;;;16.70;99.90;;;;;;5041966;28;20460;-65
2022/07/22 00:22:10;;;;;;;19.73;11.30;;;16.70;99.90;;;;;;5042146;28;21030;-66
2022/07/22 00:24:37;;;;;;;17.63;12.40;;;16.70;99.90;;;;;;5038942;28;20482;-67
2022/07/22 00:27:05;;;;;;;16.13;11.10;;;16.70;99.90;;;;;;5040828;28;20498;-66
2022/07/22 00:29:34;;;;;;;18.47;11.00;;;16.60;99.90;;;;;;5035485;28;20554;-66
2022/07/22 00:32:02;;;;;;;21.60;11.00;;;16.70;99.90;;;;;;5037094;28;20856;-66
2022/07/22 00:34:29;;;;;;;18.30;11.80;;;16.70;99.90;;;;;;5041350;28;20473;-68
2022/07/22 00:36:56;;;;;;;25.10;12.53;;;16.70;99.90;;;;;;5037079;28;20487;-67
2022/07/22 00:39:25;;;;;;;28.07;11.33;;;16.70;99.90;;;;;;5039419;28;20470;-67
2022/07/22 00:41:52;;;;;;;14.37;10.80;;;16.70;99.90;;;;;;5036289;28;20478;-67
2022/07/22 00:44:20;;;;;;;14.13;10.27;;;16.60;99.90;;;;;;5043722;28;20456;-66
2022/07/22 00:46:48;;;;;;;15.57;9.67;;;16.60;99.90;;;;;;5045948;28;20487;-67
2022/07/22 00:49:17;;;;;;;17.50;10.70;;;16.60;99.90;;;;;;5038800;28;20487;-65
2022/07/22 00:51:44;;;;;;;16.63;10.73;;;16.60;99.90;;;;;;5043748;28;20546;-67
2022/07/22 00:54:11;;;;;;;11.63;9.57;;;16.60;99.90;;;;;;5046755;28;20525;-67
2022/07/22 00:56:40;;;;;;;11.40;9.80;;;16.60;99.90;;;;;;5043122;28;20463;-66
2022/07/22 00:59:10;;;;;;;26.17;10.43;;;16.70;99.90;;;;;;5042842;28;20470;-66
2022/07/22 01:01:37;;;;;;;15.67;8.93;;;16.70;99.90;;;;;;5042706;28;20468;-67
2022/07/22 01:04:06;;;;;;;29.13;10.40;;;16.70;99.90;;;;;;5047778;28;20470;-67
2022/07/22 01:06:33;;;;;;;15.03;11.07;;;16.60;99.90;;;;;;5041895;28;20526;-66
2022/07/22 01:09:01;;;;;;;20.17;10.47;;;16.70;99.90;;;;;;5041428;28;20463;-66
2022/07/22 01:11:28;;;;;;;14.10;10.47;;;16.60;99.90;;;;;;5042607;28;20464;-65
2022/07/22 01:13:56;;;;;;;20.70;10.73;;;16.70;99.90;;;;;;5043896;28;20467;-67
2022/07/22 01:16:23;;;;;;;15.57;9.17;;;16.60;99.90;;;;;;5037419;28;20488;-67
2022/07/22 01:18:50;;;;;;;16.53;10.77;;;16.60;99.90;;;;;;5038256;28;20468;-65
2022/07/22 01:21:18;;;;;;;16.53;10.40;;;16.70;99.90;;;;;;5041242;28;20468;-66
2022/07/22 01:23:45;;;;;;;30.67;11.17;;;16.70;99.90;;;;;;5043667;28;20460;-66
2022/07/22 01:26:14;;;;;;;22.57;10.20;;;16.80;99.90;;;;;;5041896;28;20476;-66
2022/07/22 01:28:42;;;;;;;15.50;9.17;;;16.80;99.90;;;;;;5041546;28;20483;-67
2022/07/22 01:31:09;;;;;;;13.70;10.50;;;16.80;99.90;;;;;;5040241;28;20460;-67
2022/07/22 01:33:36;;;;;;;14.37;10.23;;;16.70;99.90;;;;;;5043841;28;20475;-66
2022/07/22 01:36:04;;;;;;;15.87;11.30;;;16.70;99.90;;;;;;5047342;28;20867;-67
2022/07/22 01:38:33;;;;;;;17.17;10.93;;;16.70;99.90;;;;;;5037185;28;20488;-67
2022/07/22 01:40:59;;;;;;;17.20;10.50;;;16.70;99.90;;;;;;5040182;28;20990;-67
2022/07/22 01:43:27;;;;;;;15.27;10.07;;;16.70;99.90;;;;;;5046839;28;20467;-66
2022/07/22 01:45:54;;;;;;;14.63;11.07;;;16.70;99.90;;;;;;5045833;28;20497;-67
2022/07/22 01:48:22;;;;;;;21.00;9.93;;;16.70;99.90;;;;;;5044811;28;20811;-66
2022/07/22 01:50:50;;;;;;;11.60;9.73;;;16.70;99.90;;;;;;5041621;28;20472;-67
2022/07/22 01:53:17;;;;;;;12.53;9.60;;;16.70;99.90;;;;;;5044144;28;20467;-67
2022/07/22 01:55:48;;;;;;;25.77;10.37;;;16.70;99.90;;;;;;5040992;28;20563;-66
2022/07/22 01:58:14;;;;;;;13.50;8.97;;;16.70;99.90;;;;;;5035039;28;20464;-66
2022/07/22 02:00:56;;;;;;;17.10;10.27;;;16.60;99.90;;;;;;5042328;28;20456;-67
2022/07/22 02:03:23;;;;;;;14.80;10.53;;;16.60;99.90;;;;;;5038846;28;20460;-67
2022/07/22 02:05:51;;;;;;;18.90;10.30;;;16.60;99.90;;;;;;5044279;28;20644;-67
2022/07/22 02:08:18;;;;;;;18.10;10.93;;;16.70;99.90;;;;;;5037193;28;20458;-66
2022/07/22 02:10:46;;;;;;;15.37;11.00;;;16.70;99.90;;;;;;5043353;28;20460;-66
2022/07/22 02:13:14;;;;;;;20.30;11.30;;;16.60;99.90;;;;;;5042073;28;20459;-67
2022/07/22 02:15:42;;;;;;;12.23;10.50;;;16.60;99.90;;;;;;5043284;28;20501;-66
2022/07/22 02:18:14;;;;;;;18.43;11.23;;;16.60;99.90;;;;;;5037540;28;20499;-67
2022/07/22 02:20:55;;;;;;;18.43;10.97;;;16.60;99.90;;;;;;5043831;28;20473;-67
2022/07/22 02:23:22;;;;;;;17.77;11.00;;;16.70;99.90;;;;;;5041009;28;21009;-67
2022/07/22 02:25:51;;;;;;;11.27;10.17;;;16.60;99.90;;;;;;5040253;28;20468;-67
2022/07/22 02:28:18;;;;;;;15.47;11.50;;;16.60;99.90;;;;;;5049260;28;20460;-67
2022/07/22 02:30:45;;;;;;;16.27;11.23;;;16.60;99.90;;;;;;5044377;28;20464;-66
2022/07/22 02:33:11;;;;;;;19.87;10.30;;;16.70;99.90;;;;;;5044428;28;20464;-67
2022/07/22 02:35:38;;;;;;;16.87;11.60;;;16.70;99.90;;;;;;5035322;28;20460;-66
2022/07/22 02:38:06;;;;;;;12.00;10.03;;;16.70;99.90;;;;;;5049674;28;20487;-66
2022/07/22 02:40:33;;;;;;;21.57;10.77;;;16.60;99.90;;;;;;5039818;28;20580;-67
2022/07/22 02:43:06;;;;;;;17.57;10.87;;;16.60;99.90;;;;;;5041571;28;20821;-67
2022/07/22 02:45:33;;;;;;;22.40;12.50;;;16.60;99.90;;;;;;5045426;28;20466;-66
2022/07/22 02:48:00;;;;;;;19.60;11.50;;;16.60;99.90;;;;;;5044862;28;20478;-67
2022/07/22 02:50:28;;;;;;;14.60;11.17;;;16.60;99.90;;;;;;5044679;28;20476;-66
2022/07/22 02:52:55;;;;;;;13.90;10.43;;;16.60;99.90;;;;;;5041367;28;20461;-67
2022/07/22 02:55:22;;;;;;;18.63;11.50;;;16.60;99.90;;;;;;5041667;28;20974;-67
2022/07/22 02:57:50;;;;;;;15.07;10.40;;;16.60;99.90;;;;;;5040411;28;20456;-67
2022/07/22 03:00:20;;;;;;;21.50;11.10;;;16.70;99.90;;;;;;5043541;28;20463;-68
2022/07/22 03:02:48;;;;;;;13.23;10.70;;;16.70;99.90;;;;;;5040103;28;21315;-67
2022/07/22 03:05:14;;;;;;;16.50;12.20;;;16.70;99.90;;;;;;5040118;28;20460;-67
2022/07/22 03:07:42;;;;;;;18.70;10.40;;;16.70;99.90;;;;;;5036286;28;20487;-67
2022/07/22 03:10:09;;;;;;;12.37;10.87;;;16.80;99.90;;;;;;5043863;28;20460;-67
2022/07/22 03:12:37;;;;;;;16.13;10.27;;;16.80;99.90;;;;;;5040206;28;20824;-66
2022/07/22 03:15:05;;;;;;;12.57;11.27;;;16.80;99.90;;;;;;5039197;28;20590;-67
2022/07/22 03:17:36;;;;;;;11.30;10.20;;;16.70;99.90;;;;;;5046625;28;20493;-67
2022/07/22 03:20:05;;;;;;;15.67;10.73;;;16.70;99.90;;;;;;5045010;28;20733;-67
2022/07/22 03:22:32;;;;;;;12.50;10.23;;;16.60;99.90;;;;;;5037682;28;20555;-66
2022/07/22 03:24:59;;;;;;;19.17;11.67;;;16.60;99.90;;;;;;5037824;28;20475;-67
2022/07/22 03:27:26;;;;;;;15.60;11.40;;;16.60;99.90;;;;;;5044985;28;20487;-67
2022/07/22 03:29:53;;;;;;;14.03;11.40;;;16.60;99.90;;;;;;5041774;28;20468;-67
2022/07/22 03:32:22;;;;;;;16.00;11.23;;;16.60;99.90;;;;;;5042441;28;20460;-66
2022/07/22 03:34:52;;;;;;;17.30;11.63;;;16.60;99.90;;;;;;5038025;28;20469;-66
2022/07/22 03:37:19;;;;;;;23.80;10.87;;;16.60;99.90;;;;;;5043462;28;20504;-67
2022/07/22 03:39:45;;;;;;;23.33;11.93;;;16.60;99.90;;;;;;5035957;28;20467;-68
2022/07/22 03:42:12;;;;;;;22.67;12.30;;;16.60;99.90;;;;;;5043119;28;21087;-67
2022/07/22 03:44:39;;;;;;;22.20;11.37;;;16.60;99.90;;;;;;5044690;28;20468;-67
2022/07/22 03:47:06;;;;;;;19.07;11.37;;;16.60;99.90;;;;;;5040910;28;20492;-67
2022/07/22 03:49:33;;;;;;;18.00;10.80;;;16.70;99.90;;;;;;5037754;28;20674;-67
2022/07/22 03:52:02;;;;;;;14.03;11.33;;;16.70;99.90;;;;;;5041810;28;20985;-68
2022/07/22 03:54:29;;;;;;;17.03;11.90;;;16.70;99.90;;;;;;5037805;28;20464;-66
2022/07/22 03:56:56;;;;;;;17.90;13.10;;;16.70;99.90;;;;;;5035996;28;20469;-67
2022/07/22 03:59:23;;;;;;;16.40;12.13;;;16.70;99.90;;;;;;5041325;28;20555;-66
2022/07/22 04:01:49;;;;;;;13.00;11.60;;;16.60;99.90;;;;;;5030737;28;20979;-66
2022/07/22 04:04:16;;;;;;;15.30;12.20;;;16.70;99.90;;;;;;5016427;28;20752;-67
2022/07/22 04:06:44;;;;;;;16.17;11.20;;;16.60;99.90;;;;;;5015536;28;20496;-65
2022/07/22 04:09:12;;;;;;;20.13;11.67;;;16.60;99.90;;;;;;5014808;28;21365;-67
2022/07/22 04:11:39;;;;;;;19.07;12.30;;;16.60;99.90;;;;;;5016423;28;20457;-68
2022/07/22 04:14:06;;;;;;;19.33;12.80;;;16.60;99.90;;;;;;5015862;28;20802;-67
2022/07/22 04:16:34;;;;;;;20.73;12.70;;;16.60;99.90;;;;;;5015505;28;20491;-68
2022/07/22 04:19:01;;;;;;;18.43;11.87;;;16.60;99.90;;;;;;5014919;28;20470;-69
2022/07/22 04:21:28;;;;;;;17.00;13.43;;;16.60;99.90;;;;;;5017783;28;20471;-68
2022/07/22 04:23:55;;;;;;;19.27;14.77;;;16.70;99.90;;;;;;5035826;28;20552;-67
2022/07/22 04:26:23;;;;;;;18.67;16.03;;;16.60;99.90;;;;;;5041912;28;20487;-67
2022/07/22 04:28:50;;;;;;;25.87;17.20;;;16.50;99.90;;;;;;5040053;28;20464;-67
2022/07/22 04:31:17;;;;;;;21.53;18.60;;;16.60;99.90;;;;;;5019729;28;20465;-66
2022/07/22 04:33:44;;;;;;;21.87;19.53;;;16.70;99.90;;;;;;5015960;28;20518;-66
2022/07/22 04:36:11;;;;;;;20.70;18.70;;;16.60;99.90;;;;;;5016511;28;20463;-67
2022/07/22 04:38:37;;;;;;;27.90;21.33;;;16.60;99.90;;;;;;5015564;28;20507;-67
2022/07/22 04:41:04;;;;;;;22.43;20.20;;;16.60;99.90;;;;;;5016466;28;20456;-68
2022/07/22 04:43:33;;;;;;;22.73;20.30;;;16.60;99.90;;;;;;5016601;28;20955;-68
2022/07/22 04:46:00;;;;;;;23.73;21.20;;;16.60;99.90;;;;;;5014883;28;20464;-67
2022/07/22 04:48:27;;;;;;;22.20;19.90;;;16.50;99.90;;;;;;5015504;28;20826;-68
2022/07/22 04:50:54;;;;;;;23.23;20.37;;;16.50;99.90;;;;;;5015051;28;20819;-66
2022/07/22 04:53:21;;;;;;;22.47;20.07;;;16.50;99.90;;;;;;5015861;28;20472;-67
2022/07/22 04:55:48;;;;;;;21.27;19.17;;;16.40;99.90;;;;;;5016711;28;20504;-67
2022/07/22 04:58:15;;;;;;;21.10;19.10;;;16.40;99.90;;;;;;5015121;28;20761;-68
2022/07/22 05:00:44;;;;;;;21.40;19.20;;;16.40;99.90;;;;;;5016651;28;20959;-68
2022/07/22 05:03:10;;;;;;;23.23;19.47;;;16.50;99.90;;;;;;5014920;28;20907;-68
2022/07/22 05:05:37;;;;;;;21.37;19.47;;;16.50;99.90;;;;;;5016386;28;20990;-65
2022/07/22 05:08:05;;;;;;;21.43;19.33;;;16.50;99.90;;;;;;5015158;28;20487;-67
2022/07/22 05:10:32;;;;;;;24.33;19.47;;;16.40;99.90;;;;;;5015972;28;20999;-66
2022/07/22 05:12:59;;;;;;;28.63;21.40;;;16.40;99.90;;;;;;5016613;28;20468;-67
2022/07/22 05:15:26;;;;;;;26.20;20.77;;;16.40;99.90;;;;;;5015616;28;20495;-68
2022/07/22 05:17:54;;;;;;;25.70;21.73;;;16.40;99.90;;;;;;5016238;28;20460;-66
2022/07/22 05:20:21;;;;;;;27.90;20.93;;;16.50;99.90;;;;;;5016250;28;20468;-66
2022/07/22 05:22:48;;;;;;;23.90;20.33;;;16.50;99.90;;;;;;5015680;28;20472;-67
2022/07/22 05:25:15;;;;;;;19.67;17.87;;;16.70;99.90;;;;;;5016289;28;20966;-67
2022/07/22 05:27:51;;;;;;;17.30;15.90;;;16.80;99.90;;;;;;5036618;28;20510;-66
2022/07/22 05:30:19;;;;;;;19.07;16.20;;;16.90;99.90;;;;;;5039472;28;20521;-68
2022/07/22 05:32:47;;;;;;;23.77;15.30;;;16.80;99.90;;;;;;5044453;28;20451;-67
2022/07/22 05:35:16;;;;;;;16.90;15.20;;;16.70;99.90;;;;;;5020771;28;20464;-68
2022/07/22 05:37:42;;;;;;;16.27;14.07;;;16.60;99.90;;;;;;5017401;28;20906;-69
2022/07/22 05:40:10;;;;;;;15.50;14.20;;;16.50;99.90;;;;;;5017859;28;20453;-68
2022/07/22 05:42:37;;;;;;;14.33;13.20;;;16.50;99.90;;;;;;5019540;28;20476;-67
2022/07/22 05:45:05;;;;;;;19.17;12.73;;;16.50;99.90;;;;;;5019291;28;20468;-68
2022/07/22 05:47:32;;;;;;;17.97;13.07;;;16.50;99.90;;;;;;5018018;28;21045;-67
2022/07/22 05:49:59;;;;;;;13.30;12.23;;;16.60;99.90;;;;;;5018581;28;20457;-66
2022/07/22 05:52:27;;;;;;;13.30;12.20;;;16.50;99.90;;;;;;5017383;28;20465;-67
2022/07/22 05:54:54;;;;;;;12.00;10.80;;;16.60;99.90;;;;;;5018464;28;20964;-66
2022/07/22 05:57:21;;;;;;;14.93;8.60;;;16.60;99.90;;;;;;5016753;28;21170;-68
2022/07/22 05:59:48;;;;;;;12.57;8.30;;;16.70;99.90;;;;;;5017965;28;20464;-66
2022/07/22 06:02:15;;;;;;;13.73;8.37;;;16.80;99.90;;;;;;5014749;28;20469;-67
2022/07/22 06:04:42;;;;;;;7.87;7.10;;;16.80;99.90;;;;;;5016280;28;21248;-66
2022/07/22 06:07:09;;;;;;;8.00;7.30;;;16.80;99.90;;;;;;5016646;28;20501;-67
2022/07/22 06:09:37;;;;;;;10.00;7.00;;;17.00;99.90;;;;;;5015124;28;20457;-67
2022/07/22 06:12:05;;;;;;;8.70;7.87;;;17.00;99.90;;;;;;5015163;28;20468;-67
2022/07/22 06:14:32;;;;;;;12.30;7.90;;;17.10;99.90;;;;;;5015932;28;20463;-66
2022/07/22 06:16:59;;;;;;;11.50;8.50;;;17.00;99.90;;;;;;5016196;28;20479;-67
2022/07/22 06:19:26;;;;;;;14.93;8.60;;;17.00;99.90;;;;;;5017185;28;20453;-68
2022/07/22 06:21:53;;;;;;;10.60;7.97;;;17.20;99.90;;;;;;5016068;28;21006;-67
2022/07/22 06:24:19;;;;;;;9.87;8.97;;;17.40;99.90;;;;;;5015165;28;20461;-66
2022/07/22 06:26:47;;;;;;;11.77;8.57;;;17.50;99.90;;;;;;5015854;28;20468;-66
2022/07/22 06:29:15;;;;;;;9.87;8.97;;;17.80;99.90;;;;;;5013538;28;20472;-66
2022/07/22 06:31:42;;;;;;;15.23;10.37;;;17.80;99.90;;;;;;5014534;28;20806;-67
2022/07/22 06:34:09;;;;;;;11.00;10.20;;;17.60;99.90;;;;;;5014982;28;20472;-67
2022/07/22 06:36:36;;;;;;;13.80;10.40;;;17.60;99.90;;;;;;5016065;28;20622;-67
2022/07/22 06:39:03;;;;;;;11.47;10.67;;;17.60;99.90;;;;;;5016219;28;20506;-68
2022/07/22 06:41:30;;;;;;;11.90;10.80;;;17.80;99.90;;;;;;5013912;28;20465;-67
2022/07/22 06:43:58;;;;;;;11.57;10.87;;;17.90;99.90;;;;;;5014112;28;20470;-67
2022/07/22 06:46:25;;;;;;;12.07;10.87;;;18.10;99.90;;;;;;5015555;28;20464;-67
2022/07/22 06:48:52;;;;;;;13.67;11.97;;;18.10;99.90;;;;;;5018300;28;20526;-68
2022/07/22 06:51:19;;;;;;;12.43;11.43;;;18.00;99.90;;;;;;5011571;28;20894;-67
2022/07/22 06:53:46;;;;;;;12.53;11.40;;;18.20;99.90;;;;;;5006409;28;20483;-67
2022/07/22 06:56:13;;;;;;;13.23;11.80;;;18.20;99.90;;;;;;5011187;28;22374;-66
2022/07/22 06:58:40;;;;;;;12.50;11.67;;;18.50;99.90;;;;;;5012014;28;20460;-66
2022/07/22 07:01:08;;;;;;;12.70;11.70;;;18.80;99.90;;;;;;5009974;28;20468;-67
2022/07/22 07:03:35;;;;;;;12.37;11.60;;;18.70;99.90;;;;;;5010850;28;21358;-67
2022/07/22 07:06:04;;;;;;;12.80;11.90;;;18.90;99.90;;;;;;5008822;28;20468;-68
2022/07/22 07:08:30;;;;;;;13.37;12.57;;;19.00;99.90;;;;;;5006331;28;20504;-67
2022/07/22 07:10:57;;;;;;;13.73;12.63;;;19.20;99.90;;;;;;5008416;28;20989;-68
2022/07/22 07:13:24;;;;;;;13.10;12.30;;;19.40;99.90;;;;;;5009580;28;20507;-68
2022/07/22 07:15:51;;;;;;;13.70;12.70;;;19.40;99.90;;;;;;5009377;28;20498;-66
2022/07/22 07:18:19;;;;;;;13.73;12.83;;;19.10;99.90;;;;;;5008845;28;20472;-67
2022/07/22 07:20:46;;;;;;;13.83;12.90;;;19.20;99.90;;;;;;5010138;28;20464;-67
2022/07/22 07:23:13;;;;;;;14.57;13.60;;;19.30;99.90;;;;;;5008494;28;20472;-67
2022/07/22 07:25:40;;;;;;;13.73;12.93;;;19.30;99.90;;;;;;5010230;28;20476;-68
2022/07/22 07:28:07;;;;;;;15.63;14.30;;;19.50;99.90;;;;;;5009136;28;20693;-67
2022/07/22 07:30:35;;;;;;;13.50;12.70;;;19.80;99.90;;;;;;5008586;28;21233;-68
2022/07/22 07:33:02;;;;;;;13.60;12.70;;;19.90;99.90;;;;;;5008037;28;20464;-69
2022/07/22 07:35:30;;;;;;;13.80;13.00;;;20.10;99.90;;;;;;5008484;28;20790;-67
2022/07/22 07:37:57;;;;;;;13.30;12.50;;;20.20;99.90;;;;;;5010304;28;20485;-67
2022/07/22 07:40:24;;;;;;;14.57;13.50;;;20.00;99.90;;;;;;5009075;28;20468;-67
2022/07/22 07:42:52;;;;;;;16.10;14.70;;;20.20;99.90;;;;;;5011014;28;20460;-68
2022/07/22 07:45:18;;;;;;;15.00;13.70;;;20.40;99.90;;;;;;5008256;28;20477;-67
2022/07/22 07:47:45;;;;;;;14.60;13.70;;;20.50;99.90;;;;;;5009132;28;21066;-67
2022/07/22 07:50:12;;;;;;;14.57;13.67;;;20.40;99.90;;;;;;5008115;28;20474;-68
2022/07/22 07:52:42;;;;;;;14.27;13.40;;;20.20;99.90;;;;;;5009649;28;20479;-68
2022/07/22 07:55:09;;;;;;;15.07;14.07;;;20.40;99.90;;;;;;5009815;28;21002;-68
2022/07/22 07:57:37;;;;;;;14.53;13.83;;;20.50;99.90;;;;;;5011546;28;20472;-67
2022/07/22 08:00:07;;;;;;;15.60;14.53;;;20.50;99.90;;;;;;5009565;28;20465;-68
2022/07/22 08:02:34;;;;;;;15.10;14.20;;;20.60;99.90;;;;;;5029827;28;20456;-66
2022/07/22 08:05:01;;;;;;;15.67;14.47;;;20.60;99.90;;;;;;5038375;28;20460;-69
2022/07/22 08:07:28;;;;;;;15.47;14.67;;;20.80;99.90;;;;;;5010810;28;20457;-67
2022/07/22 08:09:57;;;;;;;16.40;15.20;;;20.90;99.90;;;;;;5009660;28;20483;-69
2022/07/22 08:12:24;;;;;;;16.40;15.07;;;21.20;99.90;;;;;;5010459;28;20467;-67
2022/07/22 08:14:50;;;;;;;16.90;15.40;;;21.20;99.90;;;;;;5011334;28;20495;-68
2022/07/22 08:17:17;;;;;;;16.63;15.47;;;21.20;99.90;;;;;;5009171;28;20472;-69
2022/07/22 08:19:44;;;;;;;16.23;15.13;;;21.50;99.90;;;;;;5011392;28;20471;-67
2022/07/22 08:22:11;;;;;;;16.27;15.27;;;21.30;99.90;;;;;;5010477;28;20482;-68
2022/07/22 08:24:38;;;;;;;17.47;16.13;;;21.60;99.90;;;;;;5010728;28;20766;-68
2022/07/22 08:27:06;;;;;;;16.47;15.47;;;21.90;99.90;;;;;;5010810;28;20886;-67
2022/07/22 08:29:33;;;;;;;16.63;15.60;;;22.10;99.90;;;;;;5010449;28;20506;-67
2022/07/22 08:32:00;;;;;;;17.10;15.60;;;22.10;99.90;;;;;;5009504;28;22277;-67
2022/07/22 08:34:27;;;;;;;16.73;15.70;;;22.00;99.90;;;;;;5011276;28;20452;-68
2022/07/22 08:36:54;;;;;;;17.53;16.20;;;22.00;99.90;;;;;;5010240;28;20485;-67
2022/07/22 08:39:21;;;;;;;16.87;15.77;;;22.00;99.90;;;;;;5011057;28;20575;-67
2022/07/22 08:41:48;;;;;;;16.67;15.77;;;22.10;99.90;;;;;;5010186;28;20468;-69
2022/07/22 08:44:16;;;;;;;16.30;15.40;;;22.20;99.90;;;;;;5011453;28;20889;-67
2022/07/22 08:46:45;;;;;;;17.00;15.93;;;22.50;99.90;;;;;;5009452;28;21043;-67
2022/07/22 08:49:14;;;;;;;16.73;15.63;;;22.60;99.90;;;;;;5009320;28;20496;-67
2022/07/22 08:51:41;;;;;;;17.47;16.03;;;22.50;99.90;;;;;;5010264;28;20555;-68
2022/07/22 08:54:08;;;;;;;17.27;15.97;;;22.20;99.90;;;;;;5010587;28;20476;-67
2022/07/22 08:56:37;;;;;;;16.60;15.70;;;22.90;99.90;;;;;;5010360;28;20970;-67
2022/07/22 08:59:04;;;;;;;18.03;16.60;;;23.30;99.90;;;;;;5010617;28;20498;-67
2022/07/22 09:01:32;;;;;;;18.07;16.77;;;23.50;99.90;;;;;;5019890;28;20469;-66
2022/07/22 09:04:00;;;;;;;18.37;16.97;;;23.80;99.90;;;;;;5033698;28;20467;-68
2022/07/22 09:06:33;;;;;;;17.50;16.50;;;24.00;99.90;;;;;;5038141;28;20907;-68
2022/07/22 09:09:01;;;;;;;17.57;16.40;;;23.40;99.90;;;;;;5019849;28;20484;-66
2022/07/22 09:11:29;;;;;;;18.63;17.13;;;23.70;99.90;;;;;;5013461;28;20470;-67
2022/07/22 09:13:57;;;;;;;18.20;16.77;;;24.20;99.90;;;;;;5014749;28;20463;-67
2022/07/22 09:16:42;;;;;;;18.77;17.57;;;24.30;99.90;;;;;;5013194;28;20496;-68
2022/07/22 09:19:10;;;;;;;18.90;17.60;;;24.20;99.90;;;;;;5014791;28;20927;-68
2022/07/22 09:21:38;;;;;;;18.67;17.47;;;24.10;99.90;;;;;;5010949;28;20460;-67
2022/07/22 09:24:06;;;;;;;18.43;17.27;;;23.90;99.90;;;;;;5014239;28;20461;-67
2022/07/22 09:26:34;;;;;;;17.70;16.70;;;24.10;99.90;;;;;;5013232;28;20467;-68
2022/07/22 09:29:01;;;;;;;19.03;17.73;;;24.50;99.90;;;;;;5014034;28;20499;-68
2022/07/22 09:31:30;;;;;;;18.33;17.20;;;24.80;99.90;;;;;;5013595;28;20474;-69
2022/07/22 09:33:59;;;;;;;17.97;16.90;;;24.70;99.90;;;;;;5014274;28;20468;-69
2022/07/22 09:36:26;;;;;;;17.27;16.20;;;25.10;99.90;;;;;;5012543;28;20466;-68
2022/07/22 09:38:54;;;;;;;17.00;16.00;;;25.30;99.90;;;;;;5013566;28;20467;-69
2022/07/22 09:41:21;;;;;;;17.83;16.83;;;25.20;99.90;;;;;;5014183;28;20469;-68
2022/07/22 09:43:49;;;;;;;20.17;18.23;;;25.00;99.90;;;;;;5013024;28;20541;-69
2022/07/22 09:46:16;;;;;;;18.17;16.77;;;24.70;99.90;;;;;;5012562;28;20468;-69
2022/07/22 09:48:43;;;;;;;18.67;17.10;;;24.60;99.90;;;;;;5021096;28;20496;-68
2022/07/22 09:51:11;;;;;;;18.90;17.23;;;24.20;99.90;;;;;;5030660;28;20499;-69
2022/07/22 09:53:39;;;;;;;19.47;17.63;;;24.20;99.90;;;;;;5033432;28;20469;-69
2022/07/22 09:56:07;;;;;;;20.50;18.90;;;24.70;99.90;;;;;;5039133;28;20470;-68
2022/07/22 09:58:34;;;;;;;19.10;17.70;;;24.80;99.90;;;;;;5024636;28;20467;-68
2022/07/22 10:01:06;;;;;;;19.23;17.50;;;25.00;99.90;;;;;;5012271;28;20464;-67
2022/07/22 10:03:36;;;;;;;19.03;17.77;;;24.60;99.90;;;;;;5012792;28;21026;-69
2022/07/22 10:06:05;;;;;;;18.17;16.97;;;24.10;99.90;;;;;;5012897;28;20457;-68
2022/07/22 10:08:34;;;;;;;19.37;17.97;;;24.20;99.90;;;;;;5012840;28;20488;-68
2022/07/22 10:11:03;;;;;;;19.00;17.40;;;24.00;99.90;;;;;;5012782;28;20468;-69
2022/07/22 10:13:30;;;;;;;18.30;17.30;;;24.20;99.90;;;;;;5012512;28;20464;-69
2022/07/22 10:15:59;;;;;;;19.63;18.20;;;24.50;99.90;;;;;;5012778;28;21025;-70
2022/07/22 10:18:28;;;;;;;19.33;18.03;;;24.80;99.90;;;;;;5013093;28;20578;-68
2022/07/22 10:21:03;;;;;;;19.80;18.23;;;25.00;99.90;;;;;;5013873;28;20468;-68
2022/07/22 10:23:30;;;;;;;19.47;18.13;;;25.00;99.90;;;;;;5013105;28;20499;-67
2022/07/22 10:25:59;;;;;;;19.20;18.00;;;24.70;99.90;;;;;;5013928;28;20460;-69
2022/07/22 10:28:28;;;;;;;20.77;19.20;;;25.10;99.90;;;;;;5013074;28;20488;-67
2022/07/22 10:31:17;;;;;;;20.90;19.60;;;25.50;99.90;;;;;;5012087;28;20468;-68
2022/07/22 10:33:45;;;;;;;20.93;19.53;;;25.40;99.90;;;;;;5011725;28;20882;-67
2022/07/22 10:36:13;;;;;;;20.17;18.87;;;25.50;99.90;;;;;;5011052;28;20507;-68
2022/07/22 10:39:01;;;;;;;21.37;19.87;;;25.90;99.90;;;;;;5010385;28;20586;-68
2022/07/22 10:41:35;;;;;;;21.17;19.87;;;25.70;99.90;;;;;;5011070;28;20457;-68
2022/07/22 10:44:02;;;;;;;24.77;21.13;;;26.30;99.90;;;;;;5010286;28;20473;-68
2022/07/22 10:46:51;;;;;;;21.37;19.80;;;26.50;99.90;;;;;;5011089;28;20467;-67
2022/07/22 10:49:20;;;;;;;21.90;20.20;;;26.90;99.90;;;;;;5010731;28;20664;-68
2022/07/22 10:52:10;;;;;;;20.40;19.03;;;27.50;99.90;;;;;;5012570;28;20448;-67
2022/07/22 10:55:10;;;;;;;21.57;20.13;;;28.00;99.90;;;;;;5011881;28;20795;-69
2022/07/22 10:57:38;;;;;;;21.27;19.57;;;28.90;99.90;;;;;;5012806;28;20475;-68
2022/07/22 11:00:07;;;;;;;21.07;19.77;;;29.50;99.90;;;;;;5035147;28;20459;-67
2022/07/22 11:02:35;;;;;;;22.20;20.53;;;30.60;98.10;;;;;;5013518;28;20591;-68
2022/07/22 11:05:02;;;;;;;23.37;21.67;;;30.40;96.70;;;;;;5013181;28;20452;-68
2022/07/22 11:07:30;;;;;;;22.33;20.93;;;29.50;96.70;;;;;;5012602;28;20461;-68
2022/07/22 11:10:09;;;;;;;20.43;19.23;;;29.40;97.50;;;;;;5012172;28;20511;-67
2022/07/22 11:12:38;;;;;;;22.87;21.27;;;29.20;97.80;;;;;;5012056;28;20464;-68
2022/07/22 11:15:08;;;;;;;21.40;19.97;;;28.60;98.20;;;;;;5011761;28;20489;-67
2022/07/22 11:17:35;;;;;;;21.80;20.40;;;27.80;98.50;;;;;;5011254;28;20712;-67
2022/07/22 11:20:04;;;;;;;23.00;21.43;;;27.40;99.20;;;;;;5011858;28;20501;-67
2022/07/22 11:22:31;;;;;;;21.93;20.30;;;27.20;99.90;;;;;;5012599;28;20469;-66
2022/07/22 11:25:00;;;;;;;21.40;20.10;;;27.60;99.90;;;;;;5012017;28;20832;-66
2022/07/22 11:27:29;;;;;;;21.57;19.90;;;28.30;98.90;;;;;;5011140;28;20456;-68
2022/07/22 11:29:57;;;;;;;22.37;20.70;;;29.70;98.60;;;;;;5010445;28;20539;-67
2022/07/22 11:32:27;;;;;;;21.43;19.90;;;30.70;95.50;;;;;;5011318;28;20556;-68
2022/07/22 11:34:54;;;;;;;21.00;19.47;;;30.70;95.10;;;;;;5011032;28;20460;-67
2022/07/22 11:37:23;;;;;;;20.73;19.07;;;31.80;91.90;;;;;;5011430;28;20546;-68
2022/07/22 11:39:50;;;;;;;20.40;19.10;;;32.60;89.70;;;;;;5010927;28;20519;-68
2022/07/22 11:42:17;;;;;;;20.60;19.30;;;33.40;84.70;;;;;;5011107;28;20692;-68
2022/07/22 11:44:45;;;;;;;20.70;19.30;;;33.50;78.10;;;;;;5011379;28;20464;-67
2022/07/22 11:47:13;;;;;;;21.00;19.33;;;32.50;77.70;;;;;;5010921;28;20969;-67
2022/07/22 11:49:41;;;;;;;21.30;19.80;;;31.80;77.70;;;;;;5010639;28;20485;-66
2022/07/22 11:52:11;;;;;;;22.10;20.40;;;30.90;78.30;;;;;;5011218;28;20458;-67
2022/07/22 11:54:38;;;;;;;21.03;19.67;;;30.90;80.70;;;;;;5010481;28;20648;-68
2022/07/22 11:57:06;;;;;;;20.37;19.07;;;30.80;81.60;;;;;;5011584;28;20456;-68
2022/07/22 11:59:35;;;;;;;21.17;19.67;;;30.70;82.10;;;;;;5010917;28;20612;-68
2022/07/22 12:02:03;;;;;;;20.40;19.17;;;30.70;83.60;;;;;;5008195;28;20502;-67
2022/07/22 12:04:32;;;;;;;19.90;18.70;;;29.80;84.10;;;;;;5010497;28;20463;-69
2022/07/22 12:07:01;;;;;;;21.30;19.73;;;29.90;85.40;;;;;;5010351;28;20614;-69
2022/07/22 12:09:33;;;;;;;22.50;20.90;;;29.90;83.40;;;;;;5011459;28;21326;-68
2022/07/22 12:12:01;;;;;;;23.40;21.30;;;29.40;85.20;;;;;;5011421;28;20648;-68
2022/07/22 12:14:29;;;;;;;20.67;19.27;;;30.10;87.00;;;;;;5010740;28;20476;-68
2022/07/22 12:16:58;;;;;;;21.10;19.50;;;31.00;84.00;;;;;;5010143;28;20471;-68
2022/07/22 12:19:28;;;;;;;20.97;19.23;;;31.30;79.80;;;;;;5011777;28;20459;-68
2022/07/22 12:21:58;;;;;;;21.20;19.60;;;30.90;77.40;;;;;;5011087;28;20467;-69
2022/07/22 12:24:31;;;;;;;20.20;18.97;;;31.10;78.90;;;;;;5011828;28;20483;-68
2022/07/22 12:26:59;;;;;;;21.37;20.00;;;31.60;77.30;;;;;;5011243;28;20903;-68
2022/07/22 12:29:28;;;;;;;21.57;20.10;;;31.90;76.10;;;;;;5010495;28;20491;-68
2022/07/22 12:31:57;;;;;;;19.07;17.87;;;32.60;73.90;;;;;;5010707;28;21009;-68